Time;durP1;ratioP1;P1;durP2;ratioP2;P2;SDS_P1;SDS_P2;PMS_P1;PMS_P2;Temp;Humidity;BMP_temperature;BMP_pressure;BME280_temperature;BME280_humidity;BME280_pressure;Samples;Min_cycle;Max_cycle;Signal;HPM_P1;HPM_P2
2021/11/28 00:00:45;;;;;;;21.05;12.05;;;;;;;2.20;100.00;98976.59;5058998;28;20515;-85
2021/11/28 00:03:16;;;;;;;19.23;9.80;;;;;;;2.16;100.00;98969.94;5046579;28;20082;-85
2021/11/28 00:05:47;;;;;;;23.23;12.90;;;;;;;2.22;100.00;98970.16;5063547;28;20409;-86
2021/11/28 00:08:21;;;;;;;20.33;11.52;;;;;;;2.20;100.00;98973.94;5063439;28;20127;-85
2021/11/28 00:11:02;;;;;;;19.75;11.50;;;;;;;2.23;100.00;98973.63;5050503;28;20434;-85
2021/11/28 00:15:55;;;;;;;21.65;13.05;;;;;;;2.22;100.00;98966.69;5063606;28;20114;-85
2021/11/28 00:18:21;;;;;;;22.60;13.27;;;;;;;2.21;100.00;98972.94;5062523;28;20386;-86
2021/11/28 00:20:48;;;;;;;20.38;12.73;;;;;;;2.23;100.00;98976.28;5045724;28;20044;-85
2021/11/28 00:23:13;;;;;;;17.08;10.05;;;;;;;2.13;100.00;98976.38;5045553;28;20047;-86
2021/11/28 00:25:40;;;;;;;18.58;12.02;;;;;;;2.18;100.00;98971.44;5043586;28;20648;-86
2021/11/28 00:28:05;;;;;;;20.10;12.27;;;;;;;2.22;100.00;98979.91;5041251;28;20032;-86
2021/11/28 00:30:31;;;;;;;19.90;12.57;;;;;;;2.19;100.00;98983.69;5026840;28;20041;-86
2021/11/28 00:32:59;;;;;;;21.17;11.55;;;;;;;2.19;100.00;98981.06;5061572;28;20353;-85
2021/11/28 00:35:26;;;;;;;19.83;12.17;;;;;;;2.18;100.00;98989.13;5062603;28;20040;-86
2021/11/28 00:37:51;;;;;;;25.58;12.57;;;;;;;2.21;100.00;98983.53;5056858;28;20397;-85
2021/11/28 00:40:17;;;;;;;21.17;13.32;;;;;;;2.21;100.00;98972.94;5043957;28;20033;-85
2021/11/28 00:42:42;;;;;;;21.70;13.10;;;;;;;2.20;100.00;98982.69;5062265;28;20140;-85
2021/11/28 00:45:08;;;;;;;20.17;12.43;;;;;;;2.19;100.00;98978.41;5049150;28;20045;-85
2021/11/28 00:47:33;;;;;;;21.10;11.75;;;;;;;2.16;100.00;98985.81;5041252;28;20045;-85
2021/11/28 00:52:47;;;;;;;18.25;12.93;;;;;;;2.16;100.00;98985.81;5026808;28;20416;-86
2021/11/28 00:55:13;;;;;;;24.70;14.05;;;;;;;2.15;100.00;98989.44;5060723;28;20041;-84
2021/11/28 00:57:38;;;;;;;21.42;13.55;;;;;;;2.15;100.00;98984.97;5047430;28;20048;-85
2021/11/28 01:00:08;;;;;;;19.63;13.23;;;;;;;2.14;100.00;98987.78;5060313;28;20679;-85
2021/11/28 01:02:37;;;;;;;21.23;13.52;;;;;;;2.11;100.00;98988.09;5063180;28;20040;-84
2021/11/28 01:05:05;;;;;;;22.98;13.65;;;;;;;2.13;100.00;98988.75;5057521;28;20068;-85
2021/11/28 01:07:32;;;;;;;20.75;13.38;;;;;;;2.13;100.00;98992.25;5064140;28;20397;-84
2021/11/28 01:09:58;;;;;;;23.40;13.35;;;;;;;2.14;100.00;98993.09;5052104;28;20041;-85
2021/11/28 01:12:24;;;;;;;22.20;13.88;;;;;;;2.12;100.00;98989.75;5042218;28;20510;-85
2021/11/28 01:14:50;;;;;;;20.08;14.45;;;;;;;2.14;100.00;98993.09;5040777;28;20048;-85
2021/11/28 01:17:17;;;;;;;23.77;14.75;;;;;;;2.14;100.00;98995.72;5063360;28;20539;-85
2021/11/28 01:19:43;;;;;;;21.15;14.45;;;;;;;2.12;100.00;99009.09;5025882;28;20063;-85
2021/11/28 01:22:11;;;;;;;22.17;15.00;;;;;;;2.14;100.00;99014.25;5045973;28;20037;-86
2021/11/28 01:24:38;;;;;;;25.58;14.60;;;;;;;2.14;100.00;99014.25;5045783;28;20562;-85
2021/11/28 01:27:08;;;;;;;20.42;14.43;;;;;;;2.14;100.00;99020.38;5045112;28;20044;-86
2021/11/28 01:29:34;;;;;;;21.73;14.98;;;;;;;2.13;100.00;99015.22;5059555;28;20135;-85
2021/11/28 01:32:01;;;;;;;25.70;14.77;;;;;;;2.13;100.00;99013.44;5045663;28;20528;-85
2021/11/28 01:34:28;;;;;;;24.00;14.90;;;;;;;2.10;100.00;99019.03;5006565;28;20066;-85
2021/11/28 01:36:54;;;;;;;22.80;15.35;;;;;;;2.10;100.00;99007.59;5043753;28;20538;-85
2021/11/28 01:39:20;;;;;;;22.75;15.07;;;;;;;2.12;100.00;99016.22;5059553;28;20199;-85
2021/11/28 01:41:45;;;;;;;23.17;15.70;;;;;;;2.12;100.00;99010.91;5057841;28;20052;-85
2021/11/28 01:44:12;;;;;;;23.75;15.82;;;;;;;2.12;100.00;99010.91;5025906;28;20055;-86
2021/11/28 01:46:38;;;;;;;30.45;16.10;;;;;;;2.10;100.00;99024.31;5056086;28;20032;-86
2021/11/28 01:49:06;;;;;;;21.52;15.43;;;;;;;2.07;100.00;99014.00;5061816;28;20396;-85
2021/11/28 01:51:32;;;;;;;29.17;15.73;;;;;;;2.10;100.00;99023.47;5027371;28;20045;-86
2021/11/28 01:53:59;;;;;;;26.08;16.73;;;;;;;2.09;100.00;99019.16;5040131;28;20045;-85
2021/11/28 01:56:25;;;;;;;23.05;15.75;;;;;;;2.06;100.00;99016.84;5041757;28;20037;-85
2021/11/28 01:58:51;;;;;;;22.33;14.50;;;;;;;2.05;100.00;99009.88;5029326;28;20470;-85
2021/11/28 02:01:19;;;;;;;22.60;15.00;;;;;;;2.05;100.00;99012.53;5026427;28;20033;-85
2021/11/28 02:03:48;;;;;;;27.58;16.20;;;;;;;2.08;100.00;99013.06;5042601;28;20094;-84
2021/11/28 02:06:17;;;;;;;24.02;15.10;;;;;;;2.08;100.00;99018.34;5035202;28;20421;-84
2021/11/28 02:08:44;;;;;;;23.58;16.20;;;;;;;2.09;100.00;99021.81;5028360;28;20328;-84
2021/11/28 02:11:13;;;;;;;23.85;17.15;;;;;;;2.08;100.00;99020.16;5041536;28;20036;-85
2021/11/28 02:13:40;;;;;;;;;;;;;;;2.09;100.00;99027.09;5040001;28;20552;-85
2021/11/28 02:16:06;;;;;;;26.17;17.02;;;;;;;1.99;100.00;99019.28;5060876;28;19912;-85
2021/11/28 02:18:31;;;;;;;25.17;16.58;;;;;;;1.99;100.00;99017.44;5042759;28;20047;-85
2021/11/28 02:21:00;;;;;;;27.88;15.68;;;;;;;1.99;100.00;99013.97;5054776;28;20033;-85
2021/11/28 02:23:26;;;;;;;25.00;16.83;;;;;;;2.01;100.00;99018.13;5053161;28;20045;-86
2021/11/28 02:25:57;;;;;;;27.67;18.98;;;;;;;2.07;100.00;99021.13;5046138;28;20390;-85
2021/11/28 02:28:24;;;;;;;28.85;18.33;;;;;;;2.08;100.00;99022.81;5056941;28;20095;-85
2021/11/28 02:30:50;;;;;;;25.70;18.45;;;;;;;2.05;100.00;99028.41;5032804;28;20043;-86
2021/11/28 02:33:16;;;;;;;32.13;18.85;;;;;;;2.06;100.00;99016.84;5043388;28;20409;-86
2021/11/28 02:35:41;;;;;;;27.38;19.48;;;;;;;2.05;100.00;99031.88;5044743;28;20571;-87
2021/11/28 02:38:08;;;;;;;25.45;18.25;;;;;;;2.03;100.00;99032.03;5027569;28;20036;-86
2021/11/28 02:40:35;;;;;;;31.35;19.52;;;;;;;2.02;100.00;99027.72;5061357;28;20044;-86
2021/11/28 02:43:01;;;;;;;26.35;18.85;;;;;;;2.03;100.00;99034.66;5057866;28;20045;-85
2021/11/28 02:45:28;;;;;;;31.70;18.98;;;;;;;2.02;100.00;99043.59;5055804;28;20049;-85
2021/11/28 02:47:55;;;;;;;29.13;17.65;;;;;;;2.02;100.00;99042.78;5044019;28;20051;-85
2021/11/28 02:50:22;;;;;;;26.20;18.75;;;;;;;2.01;100.00;99046.38;5043751;28;20036;-87
2021/11/28 02:52:53;;;;;;;27.92;19.38;;;;;;;2.03;100.00;99034.66;5041117;28;20041;-85
2021/11/28 02:55:27;;;;;;;26.27;18.90;;;;;;;2.01;100.00;99043.72;5057220;28;20044;-86
2021/11/28 02:57:54;;;;;;;23.58;18.25;;;;;;;1.98;100.00;99036.09;5023880;28;20040;-86
2021/11/28 03:00:22;;;;;;;26.38;17.73;;;;;;;1.97;100.00;99045.03;5042355;28;20048;-86
2021/11/28 03:02:48;;;;;;;30.90;19.90;;;;;;;2.00;100.00;99045.56;5043606;28;20041;-86
2021/11/28 03:05:13;;;;;;;29.00;19.80;;;;;;;2.00;100.00;99044.72;5040267;28;20048;-85
2021/11/28 03:07:40;;;;;;;25.23;17.83;;;;;;;2.00;100.00;99053.50;5027646;28;20051;-85
2021/11/28 03:10:27;;;;;;;28.73;18.77;;;;;;;2.00;100.00;99048.19;5063151;28;20033;-84
2021/11/28 03:12:55;;;;;;;31.33;19.13;;;;;;;1.99;100.00;99053.66;5039625;28;20040;-86
2021/11/28 03:15:21;;;;;;;27.43;19.77;;;;;;;1.99;100.00;99046.56;5040581;28;20742;-86
2021/11/28 03:17:46;;;;;;;31.83;20.60;;;;;;;1.98;100.00;99049.34;5060966;28;20369;-86
2021/11/28 03:20:18;;;;;;;26.42;19.45;;;;;;;1.93;100.00;99052.44;5039386;28;20036;-85
2021/11/28 03:22:47;;;;;;;26.63;19.48;;;;;;;1.93;100.00;99056.91;5057926;28;20045;-85
2021/11/28 03:25:15;;;;;;;34.15;20.88;;;;;;;1.96;100.00;99051.31;5045436;28;20068;-86
2021/11/28 03:27:43;;;;;;;30.90;20.00;;;;;;;1.94;100.00;99055.91;5061695;28;20039;-86
2021/11/28 03:30:09;;;;;;;31.38;19.48;;;;;;;1.90;100.00;99058.03;5042119;28;20037;-85
2021/11/28 03:32:34;;;;;;;27.27;18.58;;;;;;;1.90;100.00;99057.19;5043780;28;20047;-85
2021/11/28 03:34:59;;;;;;;28.92;19.85;;;;;;;1.92;100.00;99061.34;5025667;28;20033;-85
2021/11/28 03:37:32;;;;;;;27.33;18.40;;;;;;;1.91;100.00;99066.81;5041728;28;20061;-86
2021/11/28 03:39:59;;;;;;;29.33;17.55;;;;;;;1.89;100.00;99064.28;5062194;28;20087;-85
2021/11/28 03:42:25;;;;;;;29.13;19.10;;;;;;;1.90;100.00;99060.69;5054243;28;20060;-85
2021/11/28 03:44:51;;;;;;;27.33;18.63;;;;;;;1.89;100.00;99060.81;5059824;28;20484;-85
2021/11/28 03:47:17;;;;;;;28.50;18.52;;;;;;;1.88;100.00;99067.09;5040951;28;20178;-85
2021/11/28 03:49:42;;;;;;;31.73;19.27;;;;;;;1.86;100.00;99074.34;5042476;28;20075;-85
2021/11/28 03:52:08;;;;;;;28.95;19.02;;;;;;;1.83;100.00;99070.19;5038527;28;20098;-85
2021/11/28 03:54:35;;;;;;;31.63;19.88;;;;;;;1.86;100.00;99069.06;5039984;28;20041;-86
2021/11/28 03:57:03;;;;;;;25.65;19.30;;;;;;;1.83;100.00;99070.19;5029325;28;20413;-85
2021/11/28 03:59:28;;;;;;;32.28;19.42;;;;;;;1.80;100.00;99065.22;5056402;28;20033;-86
2021/11/28 04:01:54;;;;;;;29.90;18.80;;;;;;;1.80;100.00;99071.31;5039694;28;20033;-85
2021/11/28 04:04:19;;;;;;;28.92;19.70;;;;;;;1.83;100.00;99074.66;5057855;28;20075;-86
2021/11/28 04:06:45;;;;;;;28.05;18.40;;;;;;;1.82;100.00;99057.13;5039946;28;20440;-85
2021/11/28 04:09:11;;;;;;;26.48;19.42;;;;;;;1.88;100.00;99072.41;5042218;28;20538;-86
2021/11/28 04:11:39;;;;;;;35.35;19.75;;;;;;;1.89;100.00;99074.88;5059934;28;20048;-86
2021/11/28 04:14:04;;;;;;;27.58;20.02;;;;;;;1.90;100.00;99065.97;5047294;28;20047;-86
2021/11/28 04:16:31;;;;;;;28.02;19.40;;;;;;;1.90;100.00;99071.28;5028030;28;20044;-85
2021/11/28 04:18:56;;;;;;;26.45;17.58;;;;;;;1.89;100.00;99069.59;5057398;28;20039;-86
2021/11/28 04:21:22;;;;;;;29.48;19.83;;;;;;;1.93;100.00;99065.69;5041356;28;20448;-86
2021/11/28 04:23:49;;;;;;;29.80;20.42;;;;;;;1.98;100.00;99067.84;5059342;28;20108;-85
2021/11/28 04:26:15;;;;;;;30.13;20.35;;;;;;;1.97;100.00;99072.31;5059458;28;20042;-86
2021/11/28 04:28:40;;;;;;;26.88;19.15;;;;;;;1.98;100.00;99073.97;5048756;28;20437;-85
2021/11/28 04:31:09;;;;;;;30.10;20.73;;;;;;;1.98;100.00;99073.97;5037723;28;20074;-85
2021/11/28 04:33:36;;;;;;;30.25;19.58;;;;;;;1.97;100.00;99072.31;5055764;28;20047;-84
2021/11/28 04:36:02;;;;;;;32.25;20.17;;;;;;;1.98;100.00;99071.31;5061686;28;20053;-86
2021/11/28 04:38:27;;;;;;;30.25;20.77;;;;;;;1.98;100.00;99073.97;5041988;28;20052;-86
2021/11/28 04:40:53;;;;;;;29.90;21.45;;;;;;;1.96;100.00;99069.84;5066609;28;20040;-86
2021/11/28 04:43:18;;;;;;;31.02;21.25;;;;;;;1.97;100.00;99067.03;5046731;28;20064;-86
2021/11/28 04:45:44;;;;;;;28.50;22.00;;;;;;;1.97;100.00;99074.97;5029329;28;20036;-86
2021/11/28 04:48:11;;;;;;;32.65;20.45;;;;;;;1.92;100.00;99064.00;5044600;28;20044;-85
2021/11/28 04:50:37;;;;;;;27.85;20.88;;;;;;;1.90;100.00;99065.97;5046231;28;20306;-86
2021/11/28 04:53:02;;;;;;;31.55;20.52;;;;;;;1.88;100.00;99067.94;5058012;28;20044;-85
2021/11/28 04:55:27;;;;;;;33.67;20.30;;;;;;;1.87;100.00;99076.00;5047414;28;20090;-85
2021/11/28 04:57:53;;;;;;;29.27;20.13;;;;;;;1.87;100.00;99076.00;5060344;28;20037;-86
2021/11/28 05:00:22;;;;;;;30.55;19.92;;;;;;;1.84;100.00;99077.13;5042733;28;20055;-85
2021/11/28 05:02:47;;;;;;;30.80;19.23;;;;;;;1.85;100.00;99081.47;5057300;28;20115;-85
2021/11/28 05:05:13;;;;;;;34.08;21.02;;;;;;;1.85;100.00;99083.28;5021698;28;20040;-85
2021/11/28 05:07:39;;;;;;;31.45;21.20;;;;;;;1.84;100.00;99090.34;5027629;28;20037;-86
2021/11/28 05:10:06;;;;;;;30.05;20.80;;;;;;;1.85;100.00;99089.41;5047626;28;20036;-85
2021/11/28 05:12:32;;;;;;;29.77;21.02;;;;;;;1.84;100.00;99098.31;5026527;28;20123;-85
2021/11/28 05:14:59;;;;;;;27.63;20.13;;;;;;;1.79;100.00;99098.75;5061081;28;20691;-85
2021/11/28 05:17:25;;;;;;;28.60;21.38;;;;;;;1.81;100.00;99101.25;5038998;28;20390;-85
2021/11/28 05:19:52;;;;;;;26.83;18.98;;;;;;;1.76;100.00;99098.25;5045257;28;20040;-86
2021/11/28 05:22:19;;;;;;;32.47;21.27;;;;;;;1.79;100.00;99095.28;5044811;28;20433;-86
2021/11/28 05:24:46;;;;;;;32.53;22.23;;;;;;;1.78;100.00;99106.84;5030770;28;20044;-86
2021/11/28 05:27:12;;;;;;;30.73;22.27;;;;;;;1.79;100.00;99104.06;5042754;28;20040;-86
2021/11/28 05:29:37;;;;;;;30.98;22.17;;;;;;;1.77;100.00;99108.66;5035029;28;20401;-86
2021/11/28 05:32:03;;;;;;;31.70;22.00;;;;;;;1.79;100.00;99113.81;5059042;28;20060;-86
2021/11/28 05:34:28;;;;;;;32.65;21.67;;;;;;;1.74;100.00;99108.13;5059468;28;20059;-86
2021/11/28 05:36:54;;;;;;;32.83;21.27;;;;;;;1.75;100.00;99107.97;5031329;28;20040;-86
2021/11/28 05:39:19;;;;;;;29.45;20.58;;;;;;;1.75;100.00;99110.59;5011973;28;20048;-85
2021/11/28 05:41:45;;;;;;;32.30;21.20;;;;;;;1.71;100.00;99111.06;5035668;28;20047;-84
2021/11/28 05:44:10;;;;;;;30.70;21.42;;;;;;;1.72;100.00;99110.06;5029870;28;20032;-86
2021/11/28 05:46:36;;;;;;;30.10;21.23;;;;;;;1.69;100.00;99110.38;5058722;28;20039;-86
2021/11/28 05:49:03;;;;;;;34.08;22.48;;;;;;;1.64;100.00;99117.91;5060413;28;20505;-84
2021/11/28 05:51:34;;;;;;;28.88;21.92;;;;;;;1.60;100.00;99112.09;5045807;28;20102;-85
2021/11/28 05:54:00;;;;;;;32.92;22.58;;;;;;;1.58;100.00;99122.84;5054443;28;20043;-85
2021/11/28 05:56:28;;;;;;;27.95;21.20;;;;;;;1.55;100.00;99120.50;5065323;28;20076;-85
2021/11/28 05:58:54;;;;;;;32.42;22.38;;;;;;;1.50;100.00;99114.81;5047796;28;20036;-85
2021/11/28 06:01:19;;;;;;;27.63;20.30;;;;;;;1.49;100.00;99128.97;5043321;28;20041;-84
2021/11/28 06:03:44;;;;;;;32.80;21.08;;;;;;;1.45;100.00;99127.63;5045726;28;20044;-85
2021/11/28 06:06:11;;;;;;;32.67;21.90;;;;;;;1.38;100.00;99121.25;5038077;28;20068;-85
2021/11/28 06:08:37;;;;;;;29.20;20.67;;;;;;;1.34;100.00;99130.44;5059020;28;20371;-85
2021/11/28 06:11:02;;;;;;;31.27;20.38;;;;;;;1.29;100.00;99122.94;5046102;28;20071;-84
2021/11/28 06:13:35;;;;;;;30.85;21.40;;;;;;;1.30;100.00;99124.63;5045345;28;20509;-85
2021/11/28 06:16:00;;;;;;;29.45;22.33;;;;;;;1.28;100.00;99123.13;5040279;28;20037;-85
2021/11/28 06:18:32;;;;;;;31.42;21.23;;;;;;;1.22;100.00;99124.53;5058680;28;20043;-86
2021/11/28 06:20:58;;;;;;;32.83;20.95;;;;;;;1.16;100.00;99124.28;5054460;28;20509;-86
2021/11/28 06:23:23;;;;;;;29.10;20.55;;;;;;;1.12;100.00;99134.28;5044209;28;20044;-85
2021/11/28 06:25:49;;;;;;;29.15;21.33;;;;;;;1.04;100.00;99124.47;5059749;28;20435;-86
2021/11/28 06:28:14;;;;;;;31.75;22.45;;;;;;;1.02;100.00;99128.22;5057715;28;20039;-85
2021/11/28 06:30:40;;;;;;;29.75;22.42;;;;;;;1.03;100.00;99133.34;5045788;28;20040;-85
2021/11/28 06:33:05;;;;;;;33.92;22.50;;;;;;;1.00;100.00;99136.28;5043681;28;20127;-85
2021/11/28 06:35:31;;;;;;;32.25;23.90;;;;;;;1.02;100.00;99136.13;5029037;28;20045;-85
2021/11/28 06:37:56;;;;;;;30.40;21.38;;;;;;;0.95;100.00;99143.81;5050581;28;20048;-85
2021/11/28 06:40:23;;;;;;;31.83;22.55;;;;;;;0.94;100.00;99144.78;5044732;28;20075;-85
2021/11/28 06:42:48;;;;;;;30.83;22.85;;;;;;;0.93;100.00;99142.28;5041175;28;20044;-86
2021/11/28 06:45:16;;;;;;;31.42;22.30;;;;;;;0.90;100.00;99146.88;5042115;28;20051;-86
2021/11/28 06:47:41;;;;;;;32.83;23.63;;;;;;;0.92;100.00;99146.72;5043793;28;20052;-86
2021/11/28 06:50:08;;;;;;;35.60;23.45;;;;;;;0.95;100.00;99153.53;5058931;28;20037;-85
2021/11/28 06:52:33;;;;;;;35.78;26.10;;;;;;;0.96;100.00;99161.31;5042758;28;20047;-86
2021/11/28 06:54:59;;;;;;;39.03;26.23;;;;;;;0.98;100.00;99167.31;5028290;28;20032;-85
2021/11/28 06:57:26;;;;;;;34.25;24.17;;;;;;;0.95;100.00;99178.16;5058510;28;20071;-86
2021/11/28 06:59:51;;;;;;;41.42;25.33;;;;;;;0.99;100.00;99170.78;5053634;28;20697;-86
2021/11/28 07:02:17;;;;;;;36.03;25.20;;;;;;;1.01;100.00;99179.41;5019262;28;20045;-85
2021/11/28 07:04:50;;;;;;;38.42;24.00;;;;;;;0.99;100.00;99181.34;5054453;28;20073;-86
2021/11/28 07:07:16;;;;;;;39.60;23.70;;;;;;;1.00;100.00;99175.88;5038499;28;20036;-86
2021/11/28 07:09:42;;;;;;;38.28;26.40;;;;;;;0.99;100.00;99174.25;5056503;28;20045;-85
2021/11/28 07:12:07;;;;;;;36.92;27.45;;;;;;;1.08;100.00;99181.31;5045114;28;20063;-85
2021/11/28 07:14:33;;;;;;;35.63;27.70;;;;;;;1.10;100.00;99182.00;5058325;28;20374;-86
2021/11/28 07:16:58;;;;;;;41.00;28.63;;;;;;;1.12;100.00;99187.97;5040725;28;20370;-85
2021/11/28 07:19:24;;;;;;;43.00;30.65;;;;;;;1.15;100.00;99193.94;5065549;28;20033;-85
2021/11/28 07:21:50;;;;;;;41.85;28.60;;;;;;;1.15;100.00;99201.88;5038357;28;20041;-86
2021/11/28 07:24:15;;;;;;;40.08;28.50;;;;;;;1.15;100.00;99197.41;5029086;28;20052;-86
2021/11/28 07:26:44;;;;;;;42.38;29.38;;;;;;;1.17;100.00;99194.63;5048758;28;20044;-85
2021/11/28 07:29:14;;;;;;;40.63;29.48;;;;;;;1.19;100.00;99197.97;5026417;28;20068;-83
2021/11/28 07:31:41;;;;;;;41.55;31.73;;;;;;;1.24;100.00;99201.03;5046323;28;20068;-83
2021/11/28 07:34:19;;;;;;;37.85;30.05;;;;;;;1.24;100.00;99207.16;5047384;28;20039;-84
2021/11/28 07:36:48;;;;;;;39.80;27.35;;;;;;;1.22;100.00;99208.25;5042594;28;20039;-84
2021/11/28 07:39:15;;;;;;;47.60;30.67;;;;;;;1.23;100.00;99204.63;5060266;28;20044;-83
2021/11/28 07:41:41;;;;;;;45.58;29.63;;;;;;;1.22;100.00;99202.97;5046644;28;20401;-84
2021/11/28 07:44:07;;;;;;;40.40;29.20;;;;;;;1.23;100.00;99204.63;5044331;28;20039;-84
2021/11/28 07:46:49;;;;;;;42.08;30.75;;;;;;;1.24;100.00;99201.03;5069289;28;20048;-83
2021/11/28 07:49:23;;;;;;;45.85;29.42;;;;;;;1.27;100.00;99201.56;5067742;28;20056;-84
2021/11/28 07:51:52;;;;;;;45.90;30.83;;;;;;;1.25;100.00;99197.41;5050428;28;20036;-85
2021/11/28 07:54:17;;;;;;;48.15;34.42;;;;;;;1.27;100.00;99195.47;5064422;28;20043;-86
2021/11/28 07:56:44;;;;;;;45.33;32.95;;;;;;;1.30;100.00;99195.16;5049279;28;20053;-84
2021/11/28 07:59:10;;;;;;;51.17;34.83;;;;;;;1.34;100.00;99199.16;5048433;28;20132;-84
2021/11/28 08:01:36;;;;;;;47.10;31.35;;;;;;;1.35;100.00;99200.84;5046219;28;20073;-84
2021/11/28 08:04:05;;;;;;;47.63;31.17;;;;;;;1.40;100.00;99206.53;5048675;28;20120;-84
2021/11/28 08:06:38;;;;;;;50.97;36.10;;;;;;;1.46;100.00;99213.88;5064357;28;20041;-85
2021/11/28 08:09:04;;;;;;;57.22;38.25;;;;;;;1.50;100.00;99220.56;5068961;28;20059;-84
2021/11/28 08:11:31;;;;;;;51.17;38.63;;;;;;;1.50;100.00;99223.19;5031882;28;20033;-85
2021/11/28 08:13:57;;;;;;;53.10;39.17;;;;;;;1.50;100.00;99220.56;5044306;28;20101;-84
2021/11/28 08:16:23;;;;;;;57.03;41.58;;;;;;;1.53;100.00;99228.19;5034247;28;20519;-84
2021/11/28 08:18:48;;;;;;;63.85;46.33;;;;;;;1.53;100.00;99230.84;5069606;28;20052;-84
2021/11/28 08:21:14;;;;;;;75.05;52.22;;;;;;;1.54;100.00;99236.94;5019549;28;20058;-84
2021/11/28 08:23:42;;;;;;;70.32;48.10;;;;;;;1.55;100.00;99238.59;5036287;28;20575;-86
2021/11/28 08:26:08;;;;;;;77.75;55.80;;;;;;;1.58;100.00;99240.97;5071751;28;20040;-86
2021/11/28 08:28:33;;;;;;;81.60;54.88;;;;;;;1.62;100.00;99252.09;5049413;28;20430;-87
2021/11/28 08:30:59;;;;;;;66.90;48.72;;;;;;;1.64;100.00;99250.13;5036926;28;20040;-86
2021/11/28 08:33:24;;;;;;;71.50;52.22;;;;;;;1.66;100.00;99254.31;5036917;28;20037;-86
2021/11/28 08:35:50;;;;;;;69.90;48.60;;;;;;;1.68;100.00;99256.81;5053883;28;20512;-86
2021/11/28 08:38:15;;;;;;;69.13;45.55;;;;;;;1.69;100.00;99253.19;5052600;28;20550;-86
2021/11/28 08:40:40;;;;;;;67.20;42.63;;;;;;;1.72;100.00;99258.19;5049014;28;20401;-87
2021/11/28 08:43:07;;;;;;;65.38;43.97;;;;;;;1.74;100.00;99254.41;5052377;28;20048;-86
2021/11/28 08:45:34;;;;;;;58.63;40.38;;;;;;;1.80;100.00;99255.66;5049003;28;20045;-86
2021/11/28 08:48:00;;;;;;;54.95;34.40;;;;;;;1.78;100.00;99253.16;5053390;28;20127;-85
2021/11/28 08:50:26;;;;;;;53.20;33.88;;;;;;;1.73;100.00;99252.75;5052311;28;20493;-86
2021/11/28 08:52:52;;;;;;;55.35;35.90;;;;;;;1.78;100.00;99254.94;5069493;28;20044;-86
2021/11/28 08:55:18;;;;;;;64.57;38.72;;;;;;;1.80;100.00;99259.13;5067551;28;20039;-86
2021/11/28 08:57:45;;;;;;;56.20;36.35;;;;;;;1.83;100.00;99265.09;5047652;28;20487;-86
2021/11/28 09:00:13;;;;;;;59.15;36.22;;;;;;;1.89;100.00;99265.34;5070492;28;20477;-87
2021/11/28 09:02:39;;;;;;;58.83;40.63;;;;;;;1.91;100.00;99263.41;5035843;28;20079;-86
2021/11/28 09:05:05;;;;;;;65.82;38.58;;;;;;;1.98;100.00;99267.09;5070860;28;20068;-86
2021/11/28 09:07:31;;;;;;;65.65;35.10;;;;;;;2.02;100.00;99271.16;5052214;28;20040;-86
2021/11/28 09:09:57;;;;;;;72.05;40.38;;;;;;;2.05;100.00;99277.13;5053219;28;20094;-86
2021/11/28 09:12:22;;;;;;;66.53;36.13;;;;;;;2.07;100.00;99277.78;5049367;28;20028;-87
2021/11/28 09:14:48;;;;;;;68.18;38.22;;;;;;;2.12;100.00;99275.56;5069948;28;20055;-87
2021/11/28 09:17:13;;;;;;;74.60;40.42;;;;;;;2.14;100.00;99274.44;5071215;28;20139;-87
2021/11/28 09:19:48;;;;;;;71.25;39.65;;;;;;;2.16;100.00;99269.00;5051941;28;20493;-86
2021/11/28 09:22:23;;;;;;;72.07;37.97;;;;;;;2.14;100.00;99271.78;5069592;28;20060;-87
2021/11/28 09:24:48;;;;;;;72.75;37.38;;;;;;;2.14;100.00;99274.44;5020098;28;20516;-84
2021/11/28 09:27:15;;;;;;;71.82;38.15;;;;;;;2.14;100.00;99278.91;5050665;28;20049;-84
2021/11/28 09:29:43;;;;;;;67.53;35.97;;;;;;;2.14;100.00;99286.84;5066993;28;20070;-84
2021/11/28 09:32:09;;;;;;;71.75;36.42;;;;;;;2.12;100.00;99288.78;5061448;28;20072;-84
2021/11/28 09:34:36;;;;;;;74.88;37.70;;;;;;;2.15;100.00;99280.56;5023123;28;20489;-84
2021/11/28 09:37:02;;;;;;;80.30;38.95;;;;;;;2.18;100.00;99289.03;5036574;28;20097;-84
2021/11/28 09:39:28;;;;;;;69.15;36.40;;;;;;;2.20;100.00;99286.25;5069545;28;20048;-87
2021/11/28 09:42:00;;;;;;;73.40;35.38;;;;;;;2.18;100.00;99285.53;5052886;28;20044;-86
2021/11/28 09:44:28;;;;;;;70.10;36.28;;;;;;;2.20;100.00;99279.13;5049691;28;20064;-84
2021/11/28 09:46:54;;;;;;;71.13;37.57;;;;;;;2.18;100.00;99280.25;5050327;28;20044;-84
2021/11/28 09:49:23;;;;;;;70.57;36.28;;;;;;;2.22;100.00;99282.47;5029690;28;20041;-85
2021/11/28 09:51:51;;;;;;;65.78;33.88;;;;;;;2.24;100.00;99285.81;5062720;28;20037;-85
2021/11/28 09:54:18;;;;;;;62.13;35.22;;;;;;;2.22;100.00;99286.94;5050863;28;20071;-86
2021/11/28 09:56:44;;;;;;;65.93;36.47;;;;;;;2.20;100.00;99275.66;5037170;28;20040;-86
2021/11/28 09:59:10;;;;;;;67.90;37.30;;;;;;;2.23;100.00;99285.94;5067685;28;20040;-87
2021/11/28 10:01:37;;;;;;;62.40;35.05;;;;;;;2.18;100.00;99285.53;5034095;28;20131;-87
2021/11/28 10:04:03;;;;;;;52.55;23.80;;;;;;;2.01;100.00;99280.06;5051335;28;20036;-87
2021/11/28 10:06:30;;;;;;;58.85;27.73;;;;;;;2.01;100.00;99273.94;5045546;28;20039;-85
2021/11/28 10:08:56;;;;;;;64.85;35.20;;;;;;;2.02;100.00;99280.91;5050590;28;20040;-85
2021/11/28 10:11:30;;;;;;;61.83;35.42;;;;;;;2.09;100.00;99275.84;5048824;28;20452;-84
2021/11/28 10:13:55;;;;;;;57.25;32.20;;;;;;;2.05;100.00;99272.66;5068465;28;20037;-85
2021/11/28 10:16:21;;;;;;;59.45;31.30;;;;;;;2.10;100.00;99277.50;5069436;28;20044;-85
2021/11/28 10:18:47;;;;;;;61.83;32.85;;;;;;;2.08;100.00;99268.91;5057154;28;20409;-85
2021/11/28 10:21:14;;;;;;;58.53;32.35;;;;;;;2.11;100.00;99274.72;5056839;28;20048;-85
2021/11/28 10:24:11;;;;;;;53.63;28.23;;;;;;;2.12;100.00;99270.25;5041960;28;20059;-85
2021/11/28 10:26:53;;;;;;;53.90;30.15;;;;;;;2.20;100.00;99275.66;5044974;28;20045;-86
2021/11/28 10:29:19;;;;;;;58.30;32.88;;;;;;;2.22;100.00;99277.19;5056897;28;20563;-86
2021/11/28 10:31:54;;;;;;;63.33;34.15;;;;;;;2.27;100.00;99279.38;5061174;28;20147;-85
2021/11/28 10:34:23;;;;;;;56.13;31.10;;;;;;;2.33;100.00;99275.28;5042761;28;20051;-86
2021/11/28 10:36:49;;;;;;;;;;;;;;;2.32;100.00;99277.09;5060064;28;20075;-85
2021/11/28 10:39:20;;;;;;;55.85;27.92;;;;;;;2.22;100.00;99276.34;5045401;28;20391;-85
2021/11/28 10:41:53;;;;;;;52.30;28.67;;;;;;;2.18;100.00;99285.53;5043790;28;20052;-85
2021/11/28 10:44:21;;;;;;;52.50;29.90;;;;;;;2.31;100.00;99286.03;5059073;28;20427;-85
2021/11/28 10:46:47;;;;;;;48.80;29.73;;;;;;;2.43;100.00;99289.31;5056876;28;20143;-85
2021/11/28 10:49:16;;;;;;;49.67;24.30;;;;;;;2.42;100.00;99290.31;5058678;28;20036;-85
2021/11/28 10:51:45;;;;;;;47.30;24.60;;;;;;;2.43;100.00;99292.78;5056605;28;20037;-84
2021/11/28 10:54:22;;;;;;;53.83;33.75;;;;;;;2.51;100.00;99294.72;5025798;28;20504;-85
2021/11/28 10:56:49;;;;;;;48.75;29.27;;;;;;;2.59;100.00;99278.91;5018610;28;20051;-85
2021/11/28 10:59:19;;;;;;;41.47;24.27;;;;;;;2.56;100.00;99279.22;5043697;28;20062;-85
2021/11/28 11:01:45;;;;;;;41.13;23.52;;;;;;;2.60;100.00;99274.44;5038450;28;20580;-86
2021/11/28 11:04:19;;;;;;;44.45;27.25;;;;;;;2.64;100.00;99281.09;5021606;28;20128;-85
2021/11/28 11:07:05;;;;;;;47.92;28.17;;;;;;;2.70;100.00;99278.69;5028093;28;20494;-85
2021/11/28 11:09:39;;;;;;;48.67;26.85;;;;;;;2.72;100.00;99275.88;5040769;28;20044;-85
2021/11/28 11:12:28;;;;;;;45.58;24.73;;;;;;;2.60;100.00;99271.78;5043161;28;20033;-86
2021/11/28 11:14:56;;;;;;;41.08;24.67;;;;;;;2.60;100.00;99275.25;5023894;28;20052;-85
2021/11/28 11:17:26;;;;;;;45.97;27.83;;;;;;;2.72;100.00;99275.88;5043426;28;20041;-85
2021/11/28 11:19:51;;;;;;;;;;;;;;;2.77;100.00;99270.97;5046775;28;20528;-85
2021/11/28 11:22:27;;;;;;;50.35;31.20;;;;;;;2.78;100.00;99269.13;5059488;28;20114;-86